createdAt,value
2023-04-29T05:01:08.649Z,39.85
2023-04-29T05:03:35.878Z,43.80
2023-04-29T05:06:03.389Z,37.10
2023-04-29T05:08:30.426Z,38.45
2023-04-29T05:10:59.886Z,42.38
2023-04-29T05:13:26.842Z,42.35
2023-04-29T05:15:54.258Z,40.13
2023-04-29T05:18:25.871Z,46.53
2023-04-29T05:20:53.045Z,46.05
2023-04-29T05:23:20.065Z,43.85
2023-04-29T05:25:47.596Z,41.92
2023-04-29T05:28:16.521Z,45.42
2023-04-29T05:30:45.271Z,43.72
2023-04-29T05:33:12.477Z,44.15
2023-04-29T05:35:39.953Z,43.38
2023-04-29T05:38:06.843Z,42.85
2023-04-29T05:40:40.747Z,40.55
2023-04-29T05:43:36.959Z,41.30
2023-04-29T05:46:04.825Z,37.08
2023-04-29T05:48:31.397Z,40.55
2023-04-29T05:50:58.808Z,35.72
2023-04-29T05:53:25.930Z,37.70
2023-04-29T05:55:53.372Z,42.58
2023-04-29T05:58:21.420Z,40.58
2023-04-29T06:00:49.630Z,35.88
2023-04-29T06:03:21.564Z,35.88
2023-04-29T06:05:54.742Z,37.55
2023-04-29T06:08:48.281Z,38.13
2023-04-29T06:11:19.994Z,39.60
2023-04-29T06:13:46.734Z,34.40
2023-04-29T06:16:15.618Z,38.45
2023-04-29T06:18:42.348Z,35.13
2023-04-29T06:21:09.666Z,31.25
2023-04-29T06:23:36.458Z,34.35
2023-04-29T06:26:10.852Z,37.20
2023-04-29T06:28:37.540Z,33.67
2023-04-29T06:31:05.283Z,36.67
2023-04-29T06:33:34.053Z,37.55
2023-04-29T06:36:01.442Z,33.83
2023-04-29T06:38:54.040Z,30.58
2023-04-29T06:41:47.659Z,37.17
2023-04-29T06:44:43.828Z,31.10
2023-04-29T06:47:34.888Z,35.03
2023-04-29T06:50:11.991Z,31.77
2023-04-29T06:52:38.959Z,34.03
2023-04-29T06:55:06.858Z,35.55
2023-04-29T06:57:34.133Z,41.13
2023-04-29T07:00:00.880Z,37.38
2023-04-29T07:02:28.220Z,37.90
2023-04-29T07:04:55.439Z,37.25
2023-04-29T07:07:23.333Z,42.38
2023-04-29T07:09:52.636Z,37.42
2023-04-29T07:12:20.753Z,44.67
2023-04-29T07:14:47.858Z,42.65
2023-04-29T07:17:15.168Z,42.22
2023-04-29T07:19:42.514Z,40.17
2023-04-29T07:22:10.892Z,44.55
2023-04-29T07:24:37.577Z,42.45
2023-04-29T07:27:04.938Z,39.42
2023-04-29T07:29:31.632Z,42.15
2023-04-29T07:31:58.877Z,43.25
2023-04-29T07:34:26.750Z,45.63
2023-04-29T07:36:54.025Z,46.30
2023-04-29T07:39:20.861Z,50.30
2023-04-29T07:41:55.363Z,45.05
2023-04-29T07:44:22.376Z,46.40
2023-04-29T07:46:49.645Z,40.95
2023-04-29T07:49:16.725Z,47.35
2023-04-29T07:51:45.668Z,43.13
2023-04-29T07:54:12.301Z,38.28
2023-04-29T07:56:39.507Z,49.35
2023-04-29T07:59:07.409Z,38.20
2023-04-29T08:01:34.909Z,37.38
2023-04-29T08:04:01.774Z,40.75
2023-04-29T08:06:29.577Z,44.78
2023-04-29T08:08:56.520Z,44.15
2023-04-29T08:11:24.716Z,39.35
2023-04-29T08:13:51.285Z,36.70
2023-04-29T08:16:18.776Z,37.15
2023-04-29T08:18:45.415Z,35.47
2023-04-29T08:21:12.579Z,34.90
2023-04-29T08:23:40.318Z,30.60
2023-04-29T08:26:07.260Z,33.10
2023-04-29T08:28:33.845Z,32.72
2023-04-29T08:31:01.093Z,34.60
2023-04-29T08:33:27.677Z,38.83
2023-04-29T08:36:04.124Z,30.70
2023-04-29T08:38:31.072Z,36.63
2023-04-29T08:40:58.742Z,30.70
2023-04-29T08:43:26.681Z,36.28
2023-04-29T08:45:54.535Z,36.15
2023-04-29T08:48:21.997Z,34.78
2023-04-29T08:50:49.295Z,36.30
2023-04-29T08:53:15.957Z,30.33
2023-04-29T08:55:48.551Z,37.95
2023-04-29T08:58:16.383Z,32.22
2023-04-29T09:00:44.843Z,35.85
2023-04-29T09:03:26.916Z,34.80
2023-04-29T09:05:56.451Z,34.75
2023-04-29T09:08:24.344Z,33.03
2023-04-29T09:10:53.102Z,31.02
2023-04-29T09:13:27.261Z,37.60
2023-04-29T09:15:54.809Z,33.40
2023-04-29T09:18:44.766Z,33.00
2023-04-29T09:21:19.072Z,34.70
2023-04-29T09:23:48.984Z,30.05
2023-04-29T09:26:16.900Z,30.42
2023-04-29T09:28:45.043Z,29.30
2023-04-29T09:31:12.868Z,30.00
2023-04-29T09:33:57.069Z,28.38
2023-04-29T09:36:41.140Z,30.75
2023-04-29T09:39:15.568Z,27.13
2023-04-29T09:41:54.249Z,29.88
2023-04-29T09:44:27.533Z,31.52
2023-04-29T09:47:03.135Z,28.90
2023-04-29T09:49:36.137Z,30.45
2023-04-29T09:52:08.064Z,26.15
2023-04-29T09:54:37.159Z,24.80
2023-04-29T09:57:07.401Z,27.27
2023-04-29T09:59:36.489Z,23.00
2023-04-29T10:02:11.895Z,23.17
2023-04-29T10:04:41.110Z,22.67
2023-04-29T10:07:09.302Z,22.67
2023-04-29T10:09:39.480Z,25.30
2023-04-29T10:12:07.444Z,20.83
2023-04-29T10:14:43.084Z,24.40
2023-04-29T10:17:26.807Z,22.38
2023-04-29T10:20:06.822Z,24.33
2023-04-29T10:22:45.924Z,20.42
2023-04-29T10:25:15.451Z,21.15
2023-04-29T10:27:46.097Z,17.15
2023-04-29T10:30:20.369Z,18.33
2023-04-29T10:32:52.133Z,21.80
2023-04-29T10:35:26.052Z,21.25
2023-04-29T10:37:54.159Z,23.75
2023-04-29T10:40:46.978Z,22.77
2023-04-29T10:43:13.768Z,21.92
2023-04-29T10:45:40.892Z,18.90
2023-04-29T10:48:13.051Z,20.23
2023-04-29T10:50:49.549Z,19.90
2023-04-29T10:53:25.494Z,22.10
2023-04-29T10:55:59.508Z,22.60
2023-04-29T10:58:39.219Z,20.98
2023-04-29T11:01:08.218Z,17.13
2023-04-29T11:03:49.500Z,18.70
2023-04-29T11:06:16.701Z,20.38
2023-04-29T11:08:43.669Z,19.75
2023-04-29T11:11:10.440Z,21.88
2023-04-29T11:13:40.738Z,24.80
2023-04-29T11:16:09.983Z,22.95
2023-04-29T11:18:57.599Z,23.40
2023-04-29T11:21:24.181Z,23.15
2023-04-29T11:23:52.530Z,17.85
2023-04-29T11:26:22.867Z,19.63
2023-04-29T11:28:52.332Z,22.92
2023-04-29T11:31:19.061Z,22.25
2023-04-29T11:33:47.414Z,21.90
2023-04-29T11:36:14.312Z,22.05
2023-04-29T11:38:42.013Z,20.25
2023-04-29T11:41:11.418Z,21.02
2023-04-29T11:43:39.756Z,18.60
2023-04-29T11:46:15.958Z,19.23
2023-04-29T11:48:47.944Z,19.40
2023-04-29T11:51:19.381Z,20.27
2023-04-29T11:53:46.521Z,19.48
2023-04-29T11:56:13.956Z,18.50
2023-04-29T11:58:43.154Z,21.10
2023-04-29T12:01:10.705Z,18.48
2023-04-29T12:03:37.597Z,18.60
2023-04-29T12:06:06.641Z,20.05
2023-04-29T12:08:34.959Z,16.05
2023-04-29T12:11:02.143Z,17.67
2023-04-29T12:13:30.565Z,17.77
2023-04-29T12:15:59.206Z,15.20
2023-04-29T12:18:27.732Z,16.63
2023-04-29T12:20:58.360Z,17.00
2023-04-29T12:23:28.735Z,19.00
2023-04-29T12:26:00.898Z,15.60
2023-04-29T12:28:27.626Z,15.73
2023-04-29T12:30:56.905Z,17.75
2023-04-29T12:33:28.776Z,17.25
2023-04-29T12:35:58.240Z,17.20
2023-04-29T12:38:31.059Z,17.55
2023-04-29T12:41:05.434Z,13.38
2023-04-29T12:43:36.716Z,16.60
2023-04-29T12:46:08.610Z,17.67
2023-04-29T12:48:41.824Z,13.23
2023-04-29T12:51:10.111Z,14.38
2023-04-29T12:53:38.054Z,14.48
2023-04-29T12:56:08.046Z,14.43
2023-04-29T12:58:35.323Z,13.73
2023-04-29T13:01:02.646Z,13.27
2023-04-29T13:03:29.519Z,12.98
2023-04-29T13:05:57.574Z,13.93
2023-04-29T13:08:24.281Z,14.27
2023-04-29T13:10:51.876Z,11.90
2023-04-29T13:13:18.521Z,12.43
2023-04-29T13:15:45.737Z,14.90
2023-04-29T13:18:12.410Z,11.60
2023-04-29T13:20:42.221Z,16.88
2023-04-29T13:23:10.088Z,12.07
2023-04-29T13:25:37.323Z,15.35
2023-04-29T13:28:05.431Z,12.95
2023-04-29T13:30:33.481Z,16.25
2023-04-29T13:33:07.943Z,12.57
2023-04-29T13:35:39.974Z,18.27
2023-04-29T13:38:07.950Z,14.27
2023-04-29T13:40:38.726Z,11.23
2023-04-29T13:43:09.950Z,13.05
2023-04-29T13:45:41.266Z,20.35
2023-04-29T13:48:25.935Z,19.30
2023-04-29T13:51:45.060Z,15.50
2023-04-29T13:54:38.256Z,17.17
2023-04-29T14:04:01.880Z,16.13
2023-04-29T14:06:28.922Z,15.95
2023-04-29T14:08:56.193Z,13.07
2023-04-29T14:11:22.811Z,11.35
2023-04-29T14:13:50.187Z,13.80
2023-04-29T14:16:17.369Z,12.35
2023-04-29T14:18:44.020Z,12.15
2023-04-29T14:21:11.576Z,12.25
2023-04-29T14:23:38.309Z,14.43
2023-04-29T14:26:23.025Z,13.30
2023-04-29T14:28:57.982Z,17.17
2023-04-29T14:31:29.230Z,16.10
2023-04-29T14:33:57.468Z,11.77
2023-04-29T14:36:24.319Z,11.88
2023-04-29T14:38:51.608Z,11.93
2023-04-29T14:41:18.408Z,11.70
2023-04-29T14:43:46.135Z,12.73
2023-04-29T14:46:13.184Z,16.08
2023-04-29T14:48:41.535Z,12.15
2023-04-29T14:51:08.558Z,10.10
2023-04-29T14:53:35.494Z,11.73
2023-04-29T14:56:03.903Z,12.35
2023-04-29T14:58:30.985Z,8.40
2023-04-29T15:00:57.622Z,14.52
2023-04-29T15:03:25.090Z,12.77
2023-04-29T15:05:52.175Z,11.05
2023-04-29T15:08:19.863Z,10.90
2023-04-29T15:10:47.565Z,8.93
2023-04-29T15:13:14.420Z,12.02
2023-04-29T15:15:42.191Z,8.93
2023-04-29T15:18:09.167Z,7.75
2023-04-29T15:20:37.923Z,9.00
2023-04-29T15:23:05.692Z,12.73
2023-04-29T15:25:34.849Z,7.60
2023-04-29T15:28:03.823Z,10.23
2023-04-29T15:30:31.181Z,7.40
2023-04-29T15:32:57.856Z,7.60
2023-04-29T15:35:25.176Z,8.45
2023-04-29T15:37:51.792Z,11.15
2023-04-29T15:40:19.004Z,7.20
2023-04-29T15:42:45.692Z,7.07
2023-04-29T15:45:13.063Z,6.32
2023-04-29T15:47:39.795Z,8.65
2023-04-29T15:50:07.851Z,8.90
2023-04-29T15:52:34.437Z,10.27
2023-04-29T15:55:01.625Z,7.28
2023-04-29T15:57:28.290Z,5.50
2023-04-29T15:59:55.771Z,6.18
2023-04-29T16:02:22.624Z,8.40
2023-04-29T16:04:49.883Z,6.60
2023-04-29T16:07:17.660Z,7.50
2023-04-29T16:09:44.977Z,6.50
2023-04-29T16:12:13.030Z,5.90
2023-04-29T16:14:40.266Z,6.63
2023-04-29T16:17:07.171Z,7.32
2023-04-29T16:19:36.877Z,6.82
2023-04-29T16:22:04.425Z,7.00
2023-04-29T16:24:31.698Z,5.78
2023-04-29T16:26:58.962Z,5.20
2023-04-29T16:29:26.545Z,7.68
2023-04-29T16:31:53.269Z,9.18
2023-04-29T16:34:20.734Z,8.18
2023-04-29T16:36:47.316Z,9.05
2023-04-29T16:39:14.684Z,5.10
2023-04-29T16:41:41.619Z,8.00
2023-04-29T16:44:09.237Z,6.05
2023-04-29T16:46:36.143Z,6.13
2023-04-29T16:49:03.533Z,7.00
2023-04-29T16:51:30.194Z,5.85
2023-04-29T16:53:57.426Z,6.18
2023-04-29T16:56:24.031Z,7.72
2023-04-29T16:58:51.441Z,6.38
2023-04-29T17:01:20.957Z,5.45
2023-04-29T17:03:48.677Z,8.10
2023-04-29T17:06:16.046Z,6.47
2023-04-29T17:08:44.757Z,12.90
2023-04-29T17:11:11.626Z,6.57
2023-04-29T17:13:38.873Z,8.10
2023-04-29T17:16:06.313Z,8.50
2023-04-29T17:18:33.631Z,10.27
2023-04-29T17:21:00.254Z,8.00
2023-04-29T17:23:27.768Z,8.20
2023-04-29T17:25:55.379Z,8.63
2023-04-29T17:28:22.553Z,9.27
2023-04-29T17:30:49.707Z,9.73
2023-04-29T17:33:17.877Z,9.80
2023-04-29T17:35:45.231Z,9.73
2023-04-29T17:38:12.610Z,7.63
2023-04-29T17:40:39.320Z,9.77
2023-04-29T17:43:06.558Z,9.05
2023-04-29T17:45:33.288Z,7.78
2023-04-29T17:48:00.872Z,6.53
2023-04-29T17:50:27.725Z,12.05
2023-04-29T17:52:55.000Z,10.35
2023-04-29T17:55:21.763Z,12.07
2023-04-29T17:57:49.063Z,18.88
2023-04-29T18:00:16.242Z,18.50
2023-04-29T18:02:43.589Z,15.88
2023-04-29T18:05:10.361Z,12.27
2023-04-29T18:07:37.270Z,11.40
2023-04-29T18:10:05.787Z,8.07
2023-04-29T18:12:33.378Z,9.77
2023-04-29T18:15:00.677Z,7.88
2023-04-29T18:17:27.939Z,9.63
2023-04-29T18:19:54.719Z,12.73
2023-04-29T18:22:22.266Z,10.88
2023-04-29T18:24:49.626Z,7.03
2023-04-29T18:27:16.883Z,7.68
2023-04-29T18:29:44.936Z,8.30
2023-04-29T18:32:12.229Z,7.75
2023-04-29T18:34:38.927Z,8.23
2023-04-29T18:37:06.244Z,8.30
2023-04-29T18:39:32.951Z,10.32
2023-04-29T18:42:00.593Z,10.73
2023-04-29T18:44:28.048Z,11.05
2023-04-29T18:46:55.438Z,10.70
2023-04-29T18:49:22.000Z,8.75
2023-04-29T18:51:50.041Z,10.18
2023-04-29T18:54:19.845Z,12.73
2023-04-29T18:56:49.216Z,13.60
2023-04-29T18:59:19.198Z,11.02
2023-04-29T19:01:48.186Z,11.13
2023-04-29T19:04:15.404Z,7.60
2023-04-29T19:06:43.173Z,9.50
2023-04-29T19:09:11.080Z,7.95
2023-04-29T19:11:38.421Z,10.27
2023-04-29T19:14:05.840Z,8.43
2023-04-29T19:16:36.195Z,9.95
2023-04-29T19:19:04.171Z,8.38
2023-04-29T19:21:33.397Z,9.52
2023-04-29T19:24:00.335Z,9.97
2023-04-29T19:26:27.664Z,9.55
2023-04-29T19:28:54.341Z,8.25
2023-04-29T19:31:21.889Z,8.45
2023-04-29T19:33:48.681Z,6.97
2023-04-29T19:36:15.917Z,10.80
2023-04-29T19:38:42.553Z,8.00
2023-04-29T19:41:10.307Z,7.10
2023-04-29T19:43:36.896Z,8.57
2023-04-29T19:46:04.089Z,8.25
2023-04-29T19:48:30.864Z,8.35
2023-04-29T19:50:59.884Z,7.72
2023-04-29T19:53:27.417Z,10.33
2023-04-29T19:55:54.629Z,10.55
2023-04-29T19:58:21.284Z,6.88
2023-04-29T20:00:48.816Z,7.97
2023-04-29T20:03:15.867Z,13.82
2023-04-29T20:05:43.582Z,13.88
2023-04-29T20:08:10.192Z,11.75
2023-04-29T20:10:37.136Z,14.30
2023-04-29T20:13:03.692Z,9.77
2023-04-29T20:15:31.046Z,9.80
2023-04-29T20:17:58.125Z,10.43
2023-04-29T20:20:26.066Z,8.10
2023-04-29T20:22:52.786Z,8.45
2023-04-29T20:25:20.809Z,8.80
2023-04-29T20:27:47.368Z,7.93
